createdAt,value
2018-08-20T00:00:52.528Z,12.17
2018-08-20T00:05:56.852Z,16.83
2018-08-20T00:11:00.544Z,13.83
2018-08-20T00:16:04.152Z,14.17
2018-08-20T00:21:07.900Z,13.50
2018-08-20T00:26:11.558Z,13.70
2018-08-20T00:31:17.006Z,13.30
2018-08-20T00:36:20.549Z,17.30
2018-08-20T00:41:24.206Z,14.63
2018-08-20T00:46:27.873Z,11.83
2018-08-20T00:51:32.366Z,15.93
2018-08-20T00:56:36.056Z,13.27
2018-08-20T01:01:39.829Z,18.30
2018-08-20T01:06:43.586Z,14.53
2018-08-20T01:11:47.191Z,18.73
2018-08-20T01:16:50.715Z,16.03
2018-08-20T01:21:54.324Z,13.60
2018-08-20T01:26:57.878Z,14.20
2018-08-20T01:32:02.034Z,13.73
2018-08-20T01:37:05.640Z,12.80
2018-08-20T01:42:09.274Z,13.83
2018-08-20T01:47:13.015Z,16.73
2018-08-20T01:52:16.711Z,10.87
2018-08-20T01:57:20.277Z,17.70
2018-08-20T02:02:24.022Z,16.23
2018-08-20T02:07:28.401Z,13.77
2018-08-20T02:12:32.138Z,14.40
2018-08-20T02:17:35.760Z,13.13
2018-08-20T02:22:39.377Z,12.40
2018-08-20T02:27:43.081Z,15.07
2018-08-20T02:32:46.810Z,13.93
2018-08-20T02:37:50.657Z,15.73
2018-08-20T02:42:54.398Z,14.97
2018-08-20T02:47:58.107Z,13.63
2018-08-20T02:53:01.830Z,15.10
2018-08-20T02:58:05.648Z,15.07
2018-08-20T03:03:09.314Z,17.27
2018-08-20T03:08:12.938Z,12.43
2018-08-20T03:13:16.619Z,17.23
2018-08-20T03:18:20.133Z,15.00
2018-08-20T03:23:24.077Z,10.33
2018-08-20T03:28:27.745Z,18.50
2018-08-20T03:33:31.389Z,18.70
2018-08-20T03:38:34.898Z,11.67
2018-08-20T03:43:38.518Z,15.67
2018-08-20T03:48:42.153Z,13.13
2018-08-20T03:53:45.813Z,12.73
2018-08-20T03:58:49.714Z,12.70
2018-08-20T04:03:54.245Z,12.33
2018-08-20T04:08:57.900Z,14.77
2018-08-20T04:14:01.657Z,15.93
2018-08-20T04:19:07.519Z,14.53
2018-08-20T04:24:11.192Z,14.43
2018-08-20T04:29:14.718Z,15.90
2018-08-20T04:34:18.307Z,13.10
2018-08-20T04:39:21.836Z,17.17
2018-08-20T04:44:26.041Z,13.27
2018-08-20T04:49:29.560Z,14.50
2018-08-20T04:54:33.204Z,15.03
2018-08-20T04:59:36.842Z,15.43
2018-08-20T05:04:40.465Z,16.65
2018-08-20T05:09:43.988Z,20.00
2018-08-20T05:14:48.482Z,11.43
2018-08-20T05:19:52.189Z,17.37
2018-08-20T05:24:55.844Z,16.77
2018-08-20T05:29:59.360Z,16.27
2018-08-20T05:35:03.668Z,14.40
2018-08-20T05:40:07.385Z,13.40
2018-08-20T05:45:12.134Z,15.57
2018-08-20T05:50:15.884Z,15.43
2018-08-20T05:55:19.566Z,20.33
2018-08-20T06:00:33.104Z,19.53
2018-08-20T06:05:36.761Z,16.23
2018-08-20T06:10:40.286Z,23.47
2018-08-20T06:15:44.034Z,15.43
2018-08-20T06:20:48.371Z,16.87
2018-08-20T06:25:52.031Z,17.43
2018-08-20T06:30:55.542Z,18.03
2018-08-20T06:35:59.160Z,22.33
2018-08-20T06:41:02.865Z,18.47
2018-08-20T06:46:06.615Z,19.23
2018-08-20T06:51:10.390Z,25.90
2018-08-20T06:56:14.038Z,19.63
2018-08-20T07:01:17.656Z,17.33
2018-08-20T07:06:21.403Z,19.27
2018-08-20T07:11:24.880Z,18.53
2018-08-20T07:16:29.117Z,20.70
2018-08-20T07:21:32.643Z,22.17
2018-08-20T07:26:36.314Z,15.37
2018-08-20T07:31:39.849Z,15.43
2018-08-20T07:36:43.451Z,18.70
2018-08-20T07:41:47.024Z,19.23
2018-08-20T07:46:50.654Z,21.07
2018-08-20T07:51:56.727Z,18.60
2018-08-20T07:57:00.375Z,16.67
2018-08-20T08:02:04.031Z,19.47
2018-08-20T08:07:08.258Z,17.90
2018-08-20T08:12:11.952Z,16.50
2018-08-20T08:17:16.464Z,21.20
2018-08-20T08:22:20.130Z,18.53
2018-08-20T08:27:23.958Z,19.60
2018-08-20T08:32:27.593Z,20.03
2018-08-20T08:37:31.217Z,20.03
2018-08-20T08:42:35.123Z,21.80
2018-08-20T08:47:38.731Z,20.63
2018-08-20T08:52:47.632Z,21.17
2018-08-20T08:57:51.409Z,22.77
2018-08-20T09:02:55.025Z,21.77
2018-08-20T09:07:58.698Z,27.20
2018-08-20T09:13:02.353Z,29.07
2018-08-20T09:18:06.817Z,23.83
2018-08-20T09:23:10.621Z,23.03
2018-08-20T09:28:14.311Z,24.77
2018-08-20T09:33:18.140Z,26.70
2018-08-20T09:38:21.822Z,23.27
2018-08-20T09:43:26.061Z,24.60
2018-08-20T09:48:30.019Z,24.33
2018-08-20T09:53:33.623Z,21.20
2018-08-20T09:58:37.177Z,22.67
2018-08-20T10:03:46.952Z,23.93
2018-08-20T10:08:50.922Z,19.77
2018-08-20T10:13:55.912Z,24.20
2018-08-20T10:18:59.681Z,20.30
2018-08-20T10:24:03.261Z,18.93
2018-08-20T10:29:06.820Z,20.13
2018-08-20T10:34:11.297Z,23.67
2018-08-20T10:39:15.555Z,20.37
2018-08-20T10:44:19.172Z,19.03
2018-08-20T10:49:22.750Z,20.60
2018-08-20T10:54:26.953Z,18.60
2018-08-20T10:59:42.573Z,22.27
2018-08-20T11:04:46.201Z,16.97
2018-08-20T11:09:49.908Z,27.23
2018-08-20T11:14:53.538Z,20.00
2018-08-20T11:19:57.057Z,20.63
2018-08-20T11:25:00.700Z,20.10
2018-08-20T11:30:05.310Z,17.73
2018-08-20T11:35:10.128Z,29.27
2018-08-20T11:40:13.885Z,30.20
2018-08-20T11:45:17.495Z,22.43
2018-08-20T11:50:21.108Z,21.40
2018-08-20T11:55:24.931Z,25.67
2018-08-20T12:00:33.748Z,24.03
2018-08-20T12:05:37.409Z,25.90
2018-08-20T12:10:40.926Z,30.30
2018-08-20T12:15:44.675Z,20.23
2018-08-20T12:20:48.220Z,19.87
2018-08-20T12:25:52.349Z,19.03
2018-08-20T12:30:56.109Z,19.07
2018-08-20T12:36:00.122Z,14.30
2018-08-20T12:41:03.640Z,14.60
2018-08-20T12:46:07.266Z,17.73
2018-08-20T12:51:10.856Z,17.47
2018-08-20T12:56:14.471Z,12.80
2018-08-20T13:01:18.255Z,12.33
2018-08-20T13:06:21.859Z,11.50
2018-08-20T13:11:25.501Z,13.27
2018-08-20T13:16:29.236Z,11.13
2018-08-20T13:21:32.754Z,9.53
2018-08-20T13:26:37.288Z,10.47
2018-08-20T13:31:41.334Z,11.40
2018-08-20T13:36:45.320Z,9.07
2018-08-20T13:41:48.988Z,6.70
2018-08-20T13:46:52.705Z,5.73
2018-08-20T13:51:56.213Z,6.33
2018-08-20T13:56:59.870Z,4.90
2018-08-20T14:02:04.121Z,7.17
2018-08-20T14:07:13.841Z,4.63
2018-08-20T14:12:17.489Z,8.10
2018-08-20T14:17:21.101Z,4.47
2018-08-20T14:22:25.448Z,15.53
2018-08-20T14:27:29.080Z,8.43
2018-08-20T14:32:32.571Z,8.03
2018-08-20T14:37:36.197Z,5.73
2018-08-20T14:42:39.676Z,4.60
2018-08-20T14:47:44.686Z,4.90
2018-08-20T14:52:48.298Z,8.27
2018-08-20T14:57:51.954Z,7.87
2018-08-20T15:02:55.475Z,5.40
2018-08-20T15:07:59.068Z,9.47
2018-08-20T15:13:02.645Z,6.97
2018-08-20T15:18:06.560Z,5.33
2018-08-20T15:23:10.656Z,4.23
2018-08-20T15:28:14.308Z,4.20
2018-08-20T15:33:17.918Z,4.70
2018-08-20T15:38:21.482Z,2.50
2018-08-20T15:43:25.117Z,2.50
2018-08-20T15:48:28.745Z,4.77
2018-08-20T15:53:32.416Z,2.40
2018-08-20T15:58:36.000Z,3.80
2018-08-20T16:03:39.632Z,4.10
2018-08-20T16:08:43.267Z,1.97
2018-08-20T16:13:46.764Z,1.67
2018-08-20T16:18:51.432Z,3.30
2018-08-20T16:23:54.971Z,5.13
2018-08-20T16:28:58.607Z,3.63
2018-08-20T16:34:02.133Z,1.50
2018-08-20T16:39:09.696Z,1.77
2018-08-20T16:44:13.307Z,1.57
2018-08-20T16:49:17.377Z,3.10
2018-08-20T16:54:20.966Z,2.33
2018-08-20T16:59:24.656Z,1.53
2018-08-20T17:04:43.058Z,1.67
2018-08-20T17:09:47.086Z,1.00
2018-08-20T17:14:50.783Z,1.27
2018-08-20T17:19:54.386Z,1.47
2018-08-20T17:24:58.017Z,1.50
2018-08-20T17:30:01.658Z,0.63
2018-08-20T17:35:09.372Z,0.43
2018-08-20T17:40:13.092Z,1.00
2018-08-20T17:45:31.973Z,1.00
2018-08-20T17:50:42.992Z,1.27
2018-08-20T17:55:46.645Z,3.50
2018-08-20T18:00:53.422Z,2.63
2018-08-20T18:06:01.139Z,1.00
2018-08-20T18:11:05.676Z,1.40
2018-08-20T18:16:11.342Z,2.13
2018-08-20T18:21:15.045Z,0.57
2018-08-20T18:26:18.580Z,3.40
2018-08-20T18:31:24.626Z,0.60
2018-08-20T18:36:31.907Z,1.50
2018-08-20T18:42:17.948Z,0.70
2018-08-20T18:47:21.527Z,0.80
2018-08-20T18:52:27.626Z,1.30
2018-08-20T18:57:34.698Z,0.87
2018-08-20T19:02:42.561Z,1.53
2018-08-20T19:07:46.662Z,0.87
2018-08-20T19:12:50.476Z,0.60
2018-08-20T19:17:54.839Z,1.53
2018-08-20T19:22:58.636Z,1.23
2018-08-20T19:28:07.801Z,2.37
2018-08-20T19:33:16.514Z,3.27
2018-08-20T19:38:20.796Z,1.60
2018-08-20T19:43:24.546Z,0.90
2018-08-20T19:48:28.246Z,0.83
2018-08-20T19:53:31.960Z,0.83
2018-08-20T19:58:35.712Z,2.50
2018-08-20T20:03:44.604Z,0.77
2018-08-20T20:08:48.847Z,1.57
2018-08-20T20:13:55.991Z,2.10
2018-08-20T20:18:59.916Z,4.47
2018-08-20T20:24:03.699Z,3.53
2018-08-20T20:29:08.676Z,1.20
2018-08-20T20:34:12.307Z,2.47
2018-08-20T20:39:16.061Z,2.67
2018-08-20T20:44:19.729Z,1.67
2018-08-20T20:49:23.266Z,1.23
2018-08-20T20:54:26.898Z,3.23
2018-08-20T20:59:30.643Z,7.00
2018-08-20T21:04:36.190Z,2.77
2018-08-20T21:09:45.017Z,2.10
2018-08-20T21:14:49.018Z,1.67
2018-08-20T21:19:52.494Z,1.73
2018-08-20T21:24:56.188Z,1.40
2018-08-20T21:30:01.144Z,1.97
2018-08-20T21:35:05.173Z,1.70
2018-08-20T21:40:09.398Z,1.67
2018-08-20T21:45:13.694Z,2.27
2018-08-20T21:50:17.386Z,2.03
2018-08-20T21:55:21.056Z,3.37
2018-08-20T22:00:32.037Z,3.07
2018-08-20T22:05:35.713Z,1.67
2018-08-20T22:10:39.291Z,1.23
2018-08-20T22:15:43.041Z,1.67
2018-08-20T22:20:46.878Z,2.07
2018-08-20T22:25:55.094Z,3.70
2018-08-20T22:30:58.714Z,2.00
2018-08-20T22:36:02.855Z,3.00
2018-08-20T22:41:06.998Z,2.73
2018-08-20T22:46:10.652Z,2.03
2018-08-20T22:51:16.935Z,2.00
2018-08-20T22:56:36.701Z,3.03
2018-08-20T23:01:40.498Z,2.40
2018-08-20T23:06:44.518Z,2.70
2018-08-20T23:11:48.095Z,2.40
2018-08-20T23:16:53.362Z,2.10
2018-08-20T23:21:56.885Z,1.37
2018-08-20T23:27:00.626Z,1.43
2018-08-20T23:32:04.329Z,2.03
2018-08-20T23:37:08.866Z,1.80
2018-08-20T23:42:12.494Z,1.63
2018-08-20T23:47:16.192Z,2.10
2018-08-20T23:52:19.849Z,1.70
2018-08-20T23:57:24.333Z,1.30
